Time;durP1;ratioP1;P1;durP2;ratioP2;P2;SDS_P1;SDS_P2;PMS_P1;PMS_P2;Temp;Humidity;BMP_temperature;BMP_pressure;BME280_temperature;BME280_humidity;BME280_pressure;Samples;Min_cycle;Max_cycle;Signal;HPM_P1;HPM_P2
2023/12/25 00:01:51;;;;;;;27.95;9.45;;;;;;;;;;5032437;28;25078;-70
2023/12/25 00:04:16;;;;;;;24.38;7.63;;;;;;;;;;5028309;28;25063;-71
2023/12/25 00:06:42;;;;;;;28.27;9.23;;;;;;;;;;5032654;28;25068;-72
2023/12/25 00:09:09;;;;;;;34.60;8.40;;;;;;;;;;5029449;28;25103;-70
2023/12/25 00:11:34;;;;;;;29.20;9.98;;;;;;;;;;5028712;28;25164;-70
2023/12/25 00:14:00;;;;;;;28.20;9.00;;;;;;;;;;5027237;28;25108;-69
2023/12/25 00:16:26;;;;;;;33.90;9.27;;;;;;;;;;5029065;28;25147;-70
2023/12/25 00:18:55;;;;;;;28.98;9.48;;;;;;;;;;5030459;28;25470;-69
2023/12/25 00:21:21;;;;;;;33.85;9.00;;;;;;;;;;5030828;28;25062;-72
2023/12/25 00:23:49;;;;;;;35.83;9.48;;;;;;;;;;5037087;28;25073;-70
2023/12/25 00:26:15;;;;;;;38.22;9.30;;;;;;;;;;5034594;28;25056;-69
2023/12/25 00:28:41;;;;;;;36.58;8.63;;;;;;;;;;5033763;28;25080;-71
2023/12/25 00:31:07;;;;;;;35.85;9.35;;;;;;;;;;5029006;28;25073;-76
2023/12/25 00:33:33;;;;;;;26.98;8.60;;;;;;;;;;5027759;28;25110;-70
2023/12/25 00:35:59;;;;;;;40.92;9.38;;;;;;;;;;5030195;28;25067;-70
2023/12/25 00:38:25;;;;;;;36.05;9.15;;;;;;;;;;5034242;28;25099;-70
2023/12/25 00:40:51;;;;;;;34.60;8.85;;;;;;;;;;5036116;28;25068;-73
2023/12/25 00:43:17;;;;;;;36.25;9.25;;;;;;;;;;5030562;28;25109;-71
2023/12/25 00:45:43;;;;;;;36.78;9.38;;;;;;;;;;5032374;28;25055;-71
2023/12/25 00:48:09;;;;;;;32.17;9.15;;;;;;;;;;5031820;28;25077;-72
2023/12/25 00:50:35;;;;;;;35.30;9.05;;;;;;;;;;5032562;28;25080;-70
2023/12/25 00:53:01;;;;;;;28.92;9.00;;;;;;;;;;5025046;28;25077;-69
2023/12/25 00:55:27;;;;;;;36.05;9.00;;;;;;;;;;5030555;28;25105;-69
2023/12/25 00:57:53;;;;;;;31.67;8.50;;;;;;;;;;5022875;28;25053;-70
2023/12/25 01:00:19;;;;;;;27.10;9.27;;;;;;;;;;5030216;28;25080;-70
2023/12/25 01:02:45;;;;;;;30.83;8.95;;;;;;;;;;5032087;28;25064;-71
2023/12/25 01:05:11;;;;;;;37.85;10.25;;;;;;;;;;5025193;28;25091;-72
2023/12/25 01:07:36;;;;;;;37.00;9.25;;;;;;;;;;5033240;28;25066;-69
2023/12/25 01:10:02;;;;;;;32.30;9.65;;;;;;;;;;5030032;28;25133;-70
2023/12/25 01:12:29;;;;;;;43.67;10.13;;;;;;;;;;5026716;28;25041;-69
2023/12/25 01:14:55;;;;;;;37.05;9.10;;;;;;;;;;5026965;28;25045;-68
2023/12/25 01:17:21;;;;;;;47.08;10.07;;;;;;;;;;5024163;28;25137;-69
2023/12/25 01:19:47;;;;;;;34.20;9.68;;;;;;;;;;5030501;28;25075;-70
2023/12/25 01:22:13;;;;;;;35.33;8.82;;;;;;;;;;5032454;28;25078;-70
2023/12/25 01:24:43;;;;;;;30.15;8.55;;;;;;;;;;5026822;28;25088;-70
2023/12/25 01:27:09;;;;;;;35.70;8.05;;;;;;;;;;5026403;28;25083;-70
2023/12/25 01:29:35;;;;;;;30.73;8.75;;;;;;;;;;5019413;28;25087;-72
2023/12/25 01:32:01;;;;;;;32.20;8.00;;;;;;;;;;5025610;28;25085;-71
2023/12/25 01:34:26;;;;;;;43.78;8.18;;;;;;;;;;5024867;28;25058;-70
2023/12/25 01:36:54;;;;;;;31.98;8.57;;;;;;;;;;5021077;28;25095;-71
2023/12/25 01:39:20;;;;;;;26.67;8.10;;;;;;;;;;5018748;28;25146;-68
2023/12/25 01:41:46;;;;;;;37.70;8.95;;;;;;;;;;5030758;28;25149;-71
2023/12/25 01:44:12;;;;;;;36.30;7.65;;;;;;;;;;5017690;28;25093;-73
2023/12/25 01:46:38;;;;;;;35.55;8.27;;;;;;;;;;5024133;28;25056;-70
2023/12/25 01:49:05;;;;;;;33.47;8.02;;;;;;;;;;5021599;28;25062;-71
2023/12/25 01:51:33;;;;;;;32.10;8.50;;;;;;;;;;5023773;28;25074;-70
2023/12/25 01:54:01;;;;;;;28.15;9.75;;;;;;;;;;5023822;28;25060;-70
2023/12/25 01:56:27;;;;;;;31.50;8.90;;;;;;;;;;5018423;28;25054;-70
2023/12/25 01:58:53;;;;;;;32.53;8.30;;;;;;;;;;5018740;28;25062;-71
2023/12/25 02:01:19;;;;;;;34.30;8.52;;;;;;;;;;5018572;28;25145;-71
2023/12/25 02:03:47;;;;;;;30.70;8.77;;;;;;;;;;5023692;28;25147;-71
2023/12/25 02:06:13;;;;;;;29.48;8.95;;;;;;;;;;5018201;28;25073;-71
2023/12/25 02:08:39;;;;;;;33.13;8.05;;;;;;;;;;5026607;28;25075;-70
2023/12/25 02:11:06;;;;;;;32.45;8.13;;;;;;;;;;5020093;28;25119;-69
2023/12/25 02:13:32;;;;;;;39.50;8.35;;;;;;;;;;5025685;28;25064;-70
2023/12/25 02:15:58;;;;;;;35.08;8.00;;;;;;;;;;5027543;28;25061;-71
2023/12/25 02:18:24;;;;;;;27.77;8.68;;;;;;;;;;5025402;28;25080;-70
2023/12/25 02:20:50;;;;;;;27.90;8.38;;;;;;;;;;5025542;28;25092;-71
2023/12/25 02:23:16;;;;;;;32.42;8.77;;;;;;;;;;5027758;28;25061;-71
2023/12/25 02:25:53;;;;;;;29.80;9.02;;;;;;;;;;5029794;28;25101;-69
2023/12/25 02:28:19;;;;;;;26.10;8.65;;;;;;;;;;5017962;28;25163;-72
2023/12/25 02:30:46;;;;;;;27.05;7.90;;;;;;;;;;5027370;28;25280;-70
2023/12/25 02:33:11;;;;;;;28.70;7.88;;;;;;;;;;5024291;28;25138;-70
2023/12/25 02:35:37;;;;;;;40.00;9.07;;;;;;;;;;5022576;28;25116;-72
2023/12/25 02:38:03;;;;;;;32.42;7.60;;;;;;;;;;5025791;28;25176;-72
2023/12/25 02:40:29;;;;;;;32.00;8.00;;;;;;;;;;5026074;28;25073;-71
2023/12/25 02:42:55;;;;;;;25.17;8.23;;;;;;;;;;5019784;28;25053;-71
2023/12/25 02:45:21;;;;;;;31.83;7.72;;;;;;;;;;5020712;28;25106;-72
2023/12/25 02:47:47;;;;;;;35.42;9.25;;;;;;;;;;5025829;28;25080;-72
2023/12/25 02:50:13;;;;;;;25.13;7.53;;;;;;;;;;5020677;28;25073;-72
2023/12/25 02:52:40;;;;;;;34.53;8.38;;;;;;;;;;5023158;28;25139;-70
2023/12/25 02:55:06;;;;;;;29.45;8.00;;;;;;;;;;5017399;28;25080;-72
2023/12/25 02:57:32;;;;;;;31.05;9.40;;;;;;;;;;5019559;28;25051;-71
2023/12/25 02:59:58;;;;;;;27.02;8.02;;;;;;;;;;5017823;28;25160;-72
2023/12/25 03:02:24;;;;;;;27.30;8.98;;;;;;;;;;5015023;28;25159;-71
2023/12/25 03:04:50;;;;;;;22.50;7.72;;;;;;;;;;5020757;28;25152;-71
2023/12/25 03:07:16;;;;;;;35.10;7.90;;;;;;;;;;5020460;28;25115;-72
2023/12/25 03:09:41;;;;;;;32.65;7.85;;;;;;;;;;5023165;28;25104;-68
2023/12/25 03:12:09;;;;;;;27.05;8.07;;;;;;;;;;5018603;28;25065;-71
2023/12/25 03:14:35;;;;;;;32.28;9.20;;;;;;;;;;5025810;28;25075;-69
2023/12/25 03:17:01;;;;;;;30.67;8.02;;;;;;;;;;5020599;28;25046;-71
2023/12/25 03:19:27;;;;;;;24.27;7.65;;;;;;;;;;5023983;28;25071;-71
2023/12/25 03:21:52;;;;;;;31.33;7.97;;;;;;;;;;5017208;28;25087;-69
2023/12/25 03:24:18;;;;;;;29.70;8.50;;;;;;;;;;5019548;28;25172;-71
2023/12/25 03:26:44;;;;;;;36.45;8.48;;;;;;;;;;5024849;28;25105;-71
2023/12/25 03:29:10;;;;;;;40.35;9.13;;;;;;;;;;5022650;28;25101;-69
2023/12/25 03:31:36;;;;;;;30.67;9.13;;;;;;;;;;5025787;28;25080;-70
2023/12/25 03:34:02;;;;;;;32.50;8.20;;;;;;;;;;5028286;28;25050;-70
2023/12/25 03:36:28;;;;;;;28.67;8.45;;;;;;;;;;5024116;28;25080;-70
2023/12/25 03:38:54;;;;;;;40.55;9.88;;;;;;;;;;5023889;28;25161;-70
2023/12/25 03:41:20;;;;;;;24.13;7.82;;;;;;;;;;5023747;28;25286;-70
2023/12/25 03:43:46;;;;;;;31.40;7.45;;;;;;;;;;5021752;28;25067;-72
2023/12/25 03:46:12;;;;;;;28.55;7.90;;;;;;;;;;5025240;28;25081;-74
2023/12/25 03:48:38;;;;;;;32.70;8.98;;;;;;;;;;5020517;28;25112;-72
2023/12/25 03:51:04;;;;;;;28.55;8.07;;;;;;;;;;5027964;28;25067;-69
2023/12/25 03:53:31;;;;;;;27.55;7.70;;;;;;;;;;5031592;28;25146;-71
2023/12/25 03:56:01;;;;;;;24.48;7.53;;;;;;;;;;5021994;28;25136;-68
2023/12/25 03:58:27;;;;;;;20.15;6.97;;;;;;;;;;5012327;28;25060;-70
2023/12/25 04:00:53;;;;;;;23.50;7.32;;;;;;;;;;5018558;28;25059;-71
2023/12/25 04:03:20;;;;;;;22.83;7.55;;;;;;;;;;5023842;28;25067;-71
2023/12/25 04:05:46;;;;;;;21.88;7.00;;;;;;;;;;5019900;28;25159;-70
2023/12/25 04:08:12;;;;;;;20.63;7.30;;;;;;;;;;5016801;28;25076;-71
2023/12/25 04:10:38;;;;;;;20.88;7.00;;;;;;;;;;5020026;28;25138;-70
2023/12/25 04:13:04;;;;;;;34.83;8.52;;;;;;;;;;5024240;28;25146;-71
2023/12/25 04:15:30;;;;;;;25.90;6.97;;;;;;;;;;5023723;28;25054;-72
2023/12/25 04:17:56;;;;;;;24.65;7.30;;;;;;;;;;5021412;28;25169;-70
2023/12/25 04:20:22;;;;;;;33.78;8.68;;;;;;;;;;5015806;28;25057;-71
2023/12/25 04:22:49;;;;;;;24.75;7.28;;;;;;;;;;5027049;28;25150;-71
2023/12/25 04:25:15;;;;;;;22.67;6.78;;;;;;;;;;5020410;28;25071;-71
2023/12/25 04:27:41;;;;;;;32.53;8.18;;;;;;;;;;5029165;28;25130;-70
2023/12/25 04:30:07;;;;;;;20.98;6.82;;;;;;;;;;5023479;28;25489;-72
2023/12/25 04:32:33;;;;;;;21.10;6.53;;;;;;;;;;5020530;28;25066;-71
2023/12/25 04:34:59;;;;;;;27.33;7.05;;;;;;;;;;5028079;28;25078;-72
2023/12/25 04:37:25;;;;;;;21.27;6.30;;;;;;;;;;5024478;28;25122;-71
2023/12/25 04:39:51;;;;;;;16.20;6.78;;;;;;;;;;5024200;28;25109;-71
2023/12/25 04:42:17;;;;;;;14.05;6.00;;;;;;;;;;5022115;28;25068;-70
2023/12/25 04:44:43;;;;;;;16.63;7.00;;;;;;;;;;5028531;28;25057;-72
2023/12/25 04:47:09;;;;;;;11.95;5.10;;;;;;;;;;5021013;28;25059;-71
2023/12/25 04:49:35;;;;;;;10.10;4.63;;;;;;;;;;5024859;28;25048;-72
2023/12/25 04:52:01;;;;;;;8.63;4.78;;;;;;;;;;5016791;28;25128;-72
2023/12/25 04:54:27;;;;;;;8.57;5.97;;;;;;;;;;5022667;28;25174;-70
2023/12/25 04:56:56;;;;;;;7.82;6.20;;;;;;;;;;5019915;28;25149;-70
2023/12/25 04:59:22;;;;;;;15.88;7.93;;;;;;;;;;5022355;28;25089;-73
2023/12/25 05:01:49;;;;;;;13.98;7.90;;;;;;;;;;5025651;28;25109;-71
2023/12/25 05:04:16;;;;;;;17.45;10.15;;;;;;;;;;5022495;28;25503;-69
2023/12/25 05:06:41;;;;;;;14.48;9.23;;;;;;;;;;5027153;28;25057;-73
2023/12/25 05:09:08;;;;;;;17.13;9.30;;;;;;;;;;5016655;28;25072;-70
2023/12/25 05:11:34;;;;;;;12.68;8.10;;;;;;;;;;5028576;28;25057;-71
2023/12/25 05:14:00;;;;;;;12.10;7.97;;;;;;;;;;5020966;28;25081;-70
2023/12/25 05:16:27;;;;;;;13.13;7.18;;;;;;;;;;5023368;28;25062;-73
2023/12/25 05:18:53;;;;;;;15.32;8.20;;;;;;;;;;5022651;28;25075;-70
2023/12/25 05:21:19;;;;;;;15.52;7.15;;;;;;;;;;5028690;28;25063;-70
2023/12/25 05:23:45;;;;;;;14.60;6.78;;;;;;;;;;5026648;28;25163;-72
2023/12/25 05:26:11;;;;;;;14.32;6.78;;;;;;;;;;5028289;28;25096;-71
2023/12/25 05:28:37;;;;;;;9.02;6.50;;;;;;;;;;5014779;28;25100;-70
2023/12/25 05:31:03;;;;;;;33.10;7.50;;;;;;;;;;5021922;28;25049;-70
2023/12/25 05:33:29;;;;;;;7.80;4.43;;;;;;;;;;5015608;28;25073;-72
2023/12/25 05:35:55;;;;;;;6.88;5.00;;;;;;;;;;5024923;28;25113;-72
2023/12/25 05:38:21;;;;;;;7.18;5.97;;;;;;;;;;5014114;28;25074;-70
2023/12/25 05:40:47;;;;;;;10.52;6.47;;;;;;;;;;5023588;28;25105;-71
2023/12/25 05:43:13;;;;;;;15.52;7.35;;;;;;;;;;5025783;28;25062;-71
2023/12/25 05:45:39;;;;;;;8.38;6.90;;;;;;;;;;5026002;28;25163;-71
2023/12/25 05:48:05;;;;;;;7.90;7.00;;;;;;;;;;5023340;28;25175;-71
2023/12/25 05:50:31;;;;;;;10.90;7.00;;;;;;;;;;5019183;28;25110;-70
2023/12/25 05:52:57;;;;;;;7.55;6.88;;;;;;;;;;5023116;28;25105;-72
2023/12/25 05:55:23;;;;;;;7.18;6.68;;;;;;;;;;5024378;28;25076;-71
2023/12/25 05:57:50;;;;;;;12.27;7.13;;;;;;;;;;5024637;28;25071;-72
2023/12/25 06:00:16;;;;;;;7.35;6.65;;;;;;;;;;5020420;28;25128;-71
2023/12/25 06:02:42;;;;;;;7.60;6.45;;;;;;;;;;5025823;28;25109;-73
2023/12/25 06:05:08;;;;;;;6.68;6.10;;;;;;;;;;5025525;28;25063;-73
2023/12/25 06:07:45;;;;;;;9.90;6.22;;;;;;;;;;5093361;27;1198004;-61
2023/12/25 06:10:11;;;;;;;8.07;5.78;;;;;;;;;;5079022;28;25164;-60
2023/12/25 06:12:37;;;;;;;10.88;6.43;;;;;;;;;;5073982;28;25157;-62
2023/12/25 06:15:05;;;;;;;12.38;7.38;;;;;;;;;;5088187;28;25048;-61
2023/12/25 06:17:32;;;;;;;9.50;7.20;;;;;;;;;;5105899;27;25102;-62
2023/12/25 06:19:59;;;;;;;9.45;5.88;;;;;;;;;;5102389;27;25071;-62
2023/12/25 06:22:24;;;;;;;8.63;6.20;;;;;;;;;;5103044;28;25053;-63
2023/12/25 06:24:50;;;;;;;7.63;5.88;;;;;;;;;;5104313;27;25056;-63
2023/12/25 06:27:16;;;;;;;10.88;6.18;;;;;;;;;;5098937;27;25056;-61
2023/12/25 06:29:42;;;;;;;6.82;5.80;;;;;;;;;;5101390;27;25079;-62
2023/12/25 06:32:08;;;;;;;6.20;5.60;;;;;;;;;;5101206;27;25141;-62
2023/12/25 06:34:34;;;;;;;7.95;5.57;;;;;;;;;;5102403;28;25143;-60
2023/12/25 06:37:00;;;;;;;12.13;5.82;;;;;;;;;;5100973;27;25055;-60
2023/12/25 06:39:26;;;;;;;6.55;5.35;;;;;;;;;;5091133;28;25057;-61
2023/12/25 06:41:52;;;;;;;6.72;5.00;;;;;;;;;;5099818;27;25062;-62
2023/12/25 06:44:18;;;;;;;7.90;4.53;;;;;;;;;;5095915;27;25093;-63
2023/12/25 06:46:44;;;;;;;4.75;4.10;;;;;;;;;;5098717;28;25072;-62
2023/12/25 06:49:10;;;;;;;5.50;3.70;;;;;;;;;;5095501;28;25078;-61
2023/12/25 06:51:36;;;;;;;3.72;3.42;;;;;;;;;;5099337;27;25098;-62
2023/12/25 06:54:02;;;;;;;4.78;4.38;;;;;;;;;;5099285;27;25093;-62
2023/12/25 06:56:28;;;;;;;5.05;4.10;;;;;;;;;;5099705;27;25120;-60
2023/12/25 06:58:54;;;;;;;5.47;4.10;;;;;;;;;;5098379;27;25073;-61
2023/12/25 07:01:23;;;;;;;4.50;4.10;;;;;;;;;;5097388;28;25059;-61
2023/12/25 07:03:49;;;;;;;6.10;4.35;;;;;;;;;;5096604;28;25073;-62
2023/12/25 07:06:15;;;;;;;4.68;4.38;;;;;;;;;;5098872;27;25119;-62
2023/12/25 07:08:41;;;;;;;5.00;4.50;;;;;;;;;;5094361;27;25059;-61
2023/12/25 07:11:07;;;;;;;4.57;4.28;;;;;;;;;;5098489;28;25078;-63
2023/12/25 07:13:33;;;;;;;4.60;4.30;;;;;;;;;;5098318;28;25309;-60
2023/12/25 07:16:00;;;;;;;5.32;4.93;;;;;;;;;;5100387;27;25128;-60
2023/12/25 07:18:26;;;;;;;5.65;4.97;;;;;;;;;;5088936;27;25078;-60
2023/12/25 07:20:52;;;;;;;7.25;5.40;;;;;;;;;;5085503;28;25066;-61
2023/12/25 07:23:19;;;;;;;10.05;5.40;;;;;;;;;;5084619;28;25054;-60
2023/12/25 07:25:45;;;;;;;7.88;5.20;;;;;;;;;;5089427;28;25116;-60
2023/12/25 07:28:11;;;;;;;6.25;5.40;;;;;;;;;;5082940;28;25147;-59
2023/12/25 07:30:37;;;;;;;6.20;5.57;;;;;;;;;;5086175;28;25147;-61
2023/12/25 07:33:03;;;;;;;7.75;5.80;;;;;;;;;;5089029;28;25156;-61
2023/12/25 07:35:29;;;;;;;6.50;5.47;;;;;;;;;;5085267;28;25058;-61
2023/12/25 07:37:55;;;;;;;7.13;6.40;;;;;;;;;;5081102;28;25057;-61
2023/12/25 07:40:21;;;;;;;5.93;5.43;;;;;;;;;;5088277;28;25051;-61
2023/12/25 07:42:47;;;;;;;5.93;5.35;;;;;;;;;;5085332;28;25056;-60
2023/12/25 07:45:13;;;;;;;9.82;5.32;;;;;;;;;;5084464;28;25058;-60
2023/12/25 07:47:39;;;;;;;6.47;5.20;;;;;;;;;;5084527;28;25105;-61
2023/12/25 07:50:06;;;;;;;6.78;4.50;;;;;;;;;;5084212;28;25158;-62
2023/12/25 07:52:32;;;;;;;7.78;4.90;;;;;;;;;;5084989;28;25144;-62
2023/12/25 07:54:59;;;;;;;8.48;4.88;;;;;;;;;;5082262;28;25082;-63
2023/12/25 07:57:25;;;;;;;8.70;4.80;;;;;;;;;;5083797;28;25065;-61
2023/12/25 07:59:51;;;;;;;10.73;5.30;;;;;;;;;;5081728;28;25138;-60
2023/12/25 08:02:17;;;;;;;5.47;4.20;;;;;;;;;;5076641;28;25130;-61
2023/12/25 08:04:43;;;;;;;6.22;4.03;;;;;;;;;;5086477;28;25078;-62
2023/12/25 08:07:09;;;;;;;5.18;3.42;;;;;;;;;;5080959;28;25122;-61
2023/12/25 08:09:35;;;;;;;5.82;3.70;;;;;;;;;;5082408;28;25094;-61
2023/12/25 08:12:01;;;;;;;8.43;4.20;;;;;;;;;;5082801;28;25072;-61
2023/12/25 08:14:27;;;;;;;5.35;3.85;;;;;;;;;;5079166;28;25135;-61
2023/12/25 08:16:53;;;;;;;6.70;3.92;;;;;;;;;;5078171;28;25113;-60
2023/12/25 08:19:19;;;;;;;5.00;4.35;;;;;;;;;;5085125;28;25151;-63
2023/12/25 08:21:45;;;;;;;5.97;4.40;;;;;;;;;;5081311;28;25172;-59
2023/12/25 08:24:10;;;;;;;8.63;4.43;;;;;;;;;;5085424;28;25072;-61
2023/12/25 08:26:36;;;;;;;6.15;4.20;;;;;;;;;;5084383;28;24837;-61
2023/12/25 08:29:02;;;;;;;15.13;4.07;;;;;;;;;;5082835;28;25062;-61
2023/12/25 08:31:28;;;;;;;5.13;4.40;;;;;;;;;;5080704;28;25097;-60
2023/12/25 08:33:54;;;;;;;7.05;4.07;;;;;;;;;;5086688;28;25063;-62
2023/12/25 08:36:20;;;;;;;6.50;4.63;;;;;;;;;;5080500;28;25061;-62
2023/12/25 08:38:46;;;;;;;4.82;4.18;;;;;;;;;;5084683;28;25055;-61
2023/12/25 08:41:12;;;;;;;6.35;4.55;;;;;;;;;;5082609;28;25088;-61
2023/12/25 08:46:06;;;;;;;7.65;4.20;;;;;;;;;;5043912;28;25065;-73
2023/12/25 08:48:32;;;;;;;4.90;3.90;;;;;;;;;;5046460;28;25070;-71
2023/12/25 08:50:58;;;;;;;7.65;4.15;;;;;;;;;;5032095;28;25058;-72
2023/12/25 08:53:24;;;;;;;8.15;3.90;;;;;;;;;;5030218;28;25081;-71
2023/12/25 08:55:51;;;;;;;6.60;3.70;;;;;;;;;;5026597;28;25080;-71
2023/12/25 08:58:17;;;;;;;8.50;4.40;;;;;;;;;;5020990;28;25065;-71
2023/12/25 09:00:43;;;;;;;7.75;4.65;;;;;;;;;;5023712;28;25087;-72
2023/12/25 09:03:09;;;;;;;10.40;4.97;;;;;;;;;;5025402;28;25058;-72
2023/12/25 09:05:35;;;;;;;7.13;4.30;;;;;;;;;;5022055;28;25150;-72
2023/12/25 09:08:02;;;;;;;11.57;4.38;;;;;;;;;;5026884;28;25079;-72
2023/12/25 09:10:28;;;;;;;9.05;4.53;;;;;;;;;;5030183;28;25067;-71
2023/12/25 09:12:54;;;;;;;8.23;4.40;;;;;;;;;;5023853;28;25058;-72
2023/12/25 09:15:20;;;;;;;7.00;4.07;;;;;;;;;;5021689;28;25075;-73
2023/12/25 09:17:46;;;;;;;12.05;4.40;;;;;;;;;;5027002;28;25063;-71
2023/12/25 09:20:12;;;;;;;8.05;4.63;;;;;;;;;;5034809;28;25066;-72
2023/12/25 09:22:38;;;;;;;9.35;4.30;;;;;;;;;;5033722;28;25082;-72
2023/12/25 09:25:05;;;;;;;10.70;3.90;;;;;;;;;;5023220;28;25072;-73
2023/12/25 09:27:31;;;;;;;11.98;4.53;;;;;;;;;;5022411;28;25082;-70
2023/12/25 09:30:11;;;;;;;10.65;4.68;;;;;;;;;;5024165;28;25050;-72
2023/12/25 09:32:37;;;;;;;10.82;3.90;;;;;;;;;;5024956;28;25093;-71
2023/12/25 09:35:03;;;;;;;10.60;4.35;;;;;;;;;;5025052;28;25100;-71
2023/12/25 09:37:29;;;;;;;11.05;4.63;;;;;;;;;;5021190;28;25073;-72
2023/12/25 09:39:55;;;;;;;9.80;4.53;;;;;;;;;;5023602;28;25055;-70
2023/12/25 09:42:22;;;;;;;9.23;5.05;;;;;;;;;;5025078;28;25074;-70
2023/12/25 09:44:50;;;;;;;9.73;4.10;;;;;;;;;;5023249;28;25104;-73
2023/12/25 09:47:35;;;;;;;10.60;4.80;;;;;;;;;;5027889;28;25083;-70
2023/12/25 09:50:03;;;;;;;12.35;4.93;;;;;;;;;;5022381;28;25062;-71
2023/12/25 09:52:30;;;;;;;9.57;4.57;;;;;;;;;;5041240;28;25069;-71
2023/12/25 09:54:56;;;;;;;7.20;4.88;;;;;;;;;;5029520;28;25141;-73
2023/12/25 09:57:48;;;;;;;10.25;4.97;;;;;;;;;;5032140;28;25052;-71
2023/12/25 10:00:14;;;;;;;11.90;5.05;;;;;;;;;;5031381;23;25126;-59
2023/12/25 10:02:45;;;;;;;14.20;5.10;;;;;;;;;;5024971;28;25051;-61
2023/12/25 10:05:12;;;;;;;13.82;5.10;;;;;;;;;;5021047;28;25044;-58
2023/12/25 10:07:38;;;;;;;8.85;4.88;;;;;;;;;;5022744;28;25080;-61
2023/12/25 10:10:05;;;;;;;9.52;4.47;;;;;;;;;;5022805;28;25136;-60
2023/12/25 10:12:31;;;;;;;13.07;5.15;;;;;;;;;;5022668;28;25046;-62
2023/12/25 10:14:57;;;;;;;12.60;5.05;;;;;;;;;;5023525;23;25097;-72
2023/12/25 10:17:23;;;;;;;5.55;4.57;;;;;;;;;;5015215;28;25073;-71
2023/12/25 10:19:57;;;;;;;5.88;4.60;;;;;;;;;;5002170;28;25079;-71
2023/12/25 10:22:33;;;;;;;8.30;4.60;;;;;;;;;;5002804;28;25082;-71
2023/12/25 10:25:09;;;;;;;4.82;4.30;;;;;;;;;;5015134;28;25056;-71
2023/12/25 10:27:37;;;;;;;12.70;5.03;;;;;;;;;;5015658;28;25066;-73
2023/12/25 10:30:03;;;;;;;13.20;4.47;;;;;;;;;;5007513;28;25057;-72
2023/12/25 10:32:30;;;;;;;11.38;4.18;;;;;;;;;;5004842;28;25081;-72
2023/12/25 10:35:13;;;;;;;10.15;4.63;;;;;;;;;;5007470;28;25101;-72
2023/12/25 10:37:40;;;;;;;11.90;4.45;;;;;;;;;;5004373;28;25065;-72
2023/12/25 10:40:27;;;;;;;11.85;4.45;;;;;;;;;;5004873;28;25062;-70
2023/12/25 10:42:54;;;;;;;9.35;4.50;;;;;;;;;;5015114;28;25077;-72
2023/12/25 10:45:22;;;;;;;6.95;4.32;;;;;;;;;;5005584;28;25073;-74
2023/12/25 10:47:49;;;;;;;9.05;4.38;;;;;;;;;;5006690;28;25060;-71
2023/12/25 10:50:16;;;;;;;7.78;4.25;;;;;;;;;;5008393;28;25074;-72
2023/12/25 10:52:44;;;;;;;8.57;4.63;;;;;;;;;;5012492;28;25059;-71
2023/12/25 10:55:11;;;;;;;8.13;4.22;;;;;;;;;;5012991;28;25083;-72
2023/12/25 10:57:37;;;;;;;7.35;4.47;;;;;;;;;;5010888;28;25167;-71
2023/12/25 11:00:04;;;;;;;8.57;4.43;;;;;;;;;;5010978;28;25071;-72
2023/12/25 11:02:34;;;;;;;7.75;4.40;;;;;;;;;;5012768;28;25073;-71
2023/12/25 11:05:00;;;;;;;6.53;4.28;;;;;;;;;;5010564;28;25083;-72
2023/12/25 11:07:27;;;;;;;6.45;3.95;;;;;;;;;;5014577;28;25147;-71
2023/12/25 11:09:54;;;;;;;10.13;4.68;;;;;;;;;;5011059;28;25121;-70
2023/12/25 11:12:20;;;;;;;5.07;4.25;;;;;;;;;;5013648;28;25079;-72
2023/12/25 11:14:47;;;;;;;6.72;4.38;;;;;;;;;;5012344;28;25065;-72
2023/12/25 11:17:13;;;;;;;7.93;4.25;;;;;;;;;;5025151;28;25081;-70
2023/12/25 11:19:39;;;;;;;5.07;3.97;;;;;;;;;;5012538;28;25054;-73
2023/12/25 11:22:23;;;;;;;5.40;4.47;;;;;;;;;;5011517;28;25058;-73
2023/12/25 11:24:49;;;;;;;8.38;4.28;;;;;;;;;;5008889;28;25068;-71
2023/12/25 11:27:18;;;;;;;7.13;4.18;;;;;;;;;;5009347;28;25066;-72
2023/12/25 11:29:44;;;;;;;8.95;5.28;;;;;;;;;;5008464;28;25070;-73
2023/12/25 11:32:13;;;;;;;4.68;4.28;;;;;;;;;;5010656;28;25068;-73
2023/12/25 11:34:39;;;;;;;6.43;3.80;;;;;;;;;;5008688;28;25068;-70
2023/12/25 11:37:17;;;;;;;6.25;4.43;;;;;;;;;;5009453;28;25074;-71
2023/12/25 11:39:53;;;;;;;7.93;7.18;;;;;;;;;;5009984;28;25056;-71
2023/12/25 11:42:20;;;;;;;5.15;4.50;;;;;;;;;;5011860;28;25068;-73
2023/12/25 11:44:48;;;;;;;9.80;4.78;;;;;;;;;;5012913;28;25065;-71
2023/12/25 11:47:17;;;;;;;6.13;5.22;;;;;;;;;;5014487;28;25092;-70
2023/12/25 11:49:43;;;;;;;6.38;5.88;;;;;;;;;;5017356;28;25130;-72
2023/12/25 11:52:14;;;;;;;4.80;4.05;;;;;;;;;;5009941;28;25143;-72
2023/12/25 11:54:43;;;;;;;5.60;5.10;;;;;;;;;;5006150;28;25140;-71
2023/12/25 11:57:18;;;;;;;6.53;4.47;;;;;;;;;;5013348;28;25056;-71
2023/12/25 11:59:46;;;;;;;8.93;5.75;;;;;;;;;;5012854;28;25063;-72
2023/12/25 12:02:15;;;;;;;6.63;4.80;;;;;;;;;;5009956;28;25064;-71
2023/12/25 12:04:41;;;;;;;6.30;4.70;;;;;;;;;;5012723;28;25053;-72
2023/12/25 12:07:07;;;;;;;5.13;4.68;;;;;;;;;;5007612;28;25126;-72
2023/12/25 12:09:33;;;;;;;8.90;5.47;;;;;;;;;;5009781;28;25072;-71
2023/12/25 12:11:59;;;;;;;13.02;5.70;;;;;;;;;;5012860;28;25106;-72
2023/12/25 12:14:25;;;;;;;9.25;5.57;;;;;;;;;;5017913;28;25062;-71
2023/12/25 12:16:51;;;;;;;13.10;6.65;;;;;;;;;;5003827;28;25094;-71
2023/12/25 12:19:18;;;;;;;8.52;4.75;;;;;;;;;;5009472;28;25078;-72
2023/12/25 12:21:44;;;;;;;10.13;5.30;;;;;;;;;;5005144;28;25087;-71
2023/12/25 12:24:23;;;;;;;9.65;5.90;;;;;;;;;;5010188;28;25157;-72
2023/12/25 12:26:49;;;;;;;7.70;4.70;;;;;;;;;;5007656;28;25110;-71
2023/12/25 12:29:15;;;;;;;12.48;5.25;;;;;;;;;;5009109;28;25141;-72
2023/12/25 12:31:42;;;;;;;15.77;5.63;;;;;;;;;;5008611;28;25126;-74
2023/12/25 12:34:08;;;;;;;11.50;4.97;;;;;;;;;;5015721;28;25074;-73
2023/12/25 12:36:34;;;;;;;6.50;5.10;;;;;;;;;;5004793;28;25084;-73
2023/12/25 12:39:00;;;;;;;11.63;5.65;;;;;;;;;;5013730;28;25050;-73
2023/12/25 12:41:26;;;;;;;12.77;4.85;;;;;;;;;;5007884;28;25054;-73
2023/12/25 12:43:58;;;;;;;15.93;5.20;;;;;;;;;;5008730;28;25071;-74
2023/12/25 12:46:24;;;;;;;12.98;4.63;;;;;;;;;;5006177;28;25158;-72
2023/12/25 12:48:50;;;;;;;9.93;4.38;;;;;;;;;;5007576;28;25077;-74
2023/12/25 12:51:17;;;;;;;13.48;4.65;;;;;;;;;;5009173;28;25135;-74
2023/12/25 12:53:43;;;;;;;6.72;3.90;;;;;;;;;;5004416;28;25084;-75
2023/12/25 12:56:11;;;;;;;8.30;4.30;;;;;;;;;;5010017;28;25135;-74
2023/12/25 12:58:37;;;;;;;18.02;5.60;;;;;;;;;;5009887;28;25111;-73
2023/12/25 13:01:03;;;;;;;9.00;4.40;;;;;;;;;;5015840;28;25098;-74
2023/12/25 13:03:29;;;;;;;10.95;4.60;;;;;;;;;;5009262;28;25054;-74
2023/12/25 13:05:55;;;;;;;9.45;4.55;;;;;;;;;;5022272;28;25050;-74
2023/12/25 13:08:36;;;;;;;5.78;3.40;;;;;;;;;;5013979;28;25051;-76
2023/12/25 13:11:02;;;;;;;8.88;4.43;;;;;;;;;;5009978;28;25122;-73
2023/12/25 13:13:30;;;;;;;9.15;3.85;;;;;;;;;;5016146;28;25055;-72
2023/12/25 13:15:56;;;;;;;6.85;3.53;;;;;;;;;;5005488;28;25053;-74
2023/12/25 13:18:22;;;;;;;7.38;3.55;;;;;;;;;;5006923;28;25056;-72
2023/12/25 13:20:48;;;;;;;10.35;4.50;;;;;;;;;;4999840;28;25066;-73
2023/12/25 13:23:14;;;;;;;10.00;3.70;;;;;;;;;;5005056;28;25065;-74
2023/12/25 13:25:40;;;;;;;7.03;3.15;;;;;;;;;;5009265;28;25121;-73
2023/12/25 13:28:06;;;;;;;4.03;3.00;;;;;;;;;;5006983;28;25169;-71
2023/12/25 13:30:32;;;;;;;4.18;2.90;;;;;;;;;;5006752;28;25101;-73
2023/12/25 13:32:58;;;;;;;11.68;4.10;;;;;;;;;;5007565;28;25075;-74
2023/12/25 13:35:24;;;;;;;3.65;2.90;;;;;;;;;;5020460;28;25053;-73
2023/12/25 13:37:50;;;;;;;5.60;3.47;;;;;;;;;;5014789;28;25268;-72
2023/12/25 13:40:16;;;;;;;5.70;3.35;;;;;;;;;;5016381;28;25074;-73
2023/12/25 13:42:42;;;;;;;6.65;3.72;;;;;;;;;;5023981;28;25139;-72
2023/12/25 13:45:08;;;;;;;4.93;3.50;;;;;;;;;;5012313;28;25083;-72
2023/12/25 13:47:34;;;;;;;4.40;3.97;;;;;;;;;;5010923;28;25134;-72
2023/12/25 13:50:00;;;;;;;4.55;4.13;;;;;;;;;;5013907;28;25064;-72
2023/12/25 13:52:26;;;;;;;6.93;4.63;;;;;;;;;;5015671;28;25065;-72
2023/12/25 13:54:52;;;;;;;8.98;4.53;;;;;;;;;;5006387;28;25068;-72
2023/12/25 13:57:18;;;;;;;9.75;4.43;;;;;;;;;;5012621;28;25150;-73
2023/12/25 13:59:44;;;;;;;11.38;6.00;;;;;;;;;;5014729;28;25079;-73
2023/12/25 14:02:10;;;;;;;13.57;5.55;;;;;;;;;;5026490;28;25053;-73
2023/12/25 14:04:36;;;;;;;14.68;6.40;;;;;;;;;;5014462;28;25161;-73
2023/12/25 14:07:03;;;;;;;12.60;5.22;;;;;;;;;;5006021;28;25056;-71
2023/12/25 14:09:29;;;;;;;12.82;6.03;;;;;;;;;;5006185;28;25136;-73
2023/12/25 14:11:55;;;;;;;13.45;5.78;;;;;;;;;;5006679;28;25143;-72
2023/12/25 14:14:21;;;;;;;19.67;6.50;;;;;;;;;;5000851;28;25152;-72
2023/12/25 14:16:47;;;;;;;22.63;6.60;;;;;;;;;;5011684;28;25105;-72
2023/12/25 14:19:13;;;;;;;17.48;6.97;;;;;;;;;;5005440;28;25128;-73
2023/12/25 14:21:39;;;;;;;23.77;8.43;;;;;;;;;;5007524;28;25135;-73
2023/12/25 14:24:27;;;;;;;39.22;9.13;;;;;;;;;;5005810;28;25063;-72
2023/12/25 14:26:53;;;;;;;30.30;11.10;;;;;;;;;;5000874;28;25068;-71
2023/12/25 14:29:19;;;;;;;29.52;9.60;;;;;;;;;;5023914;23;25060;-70
2023/12/25 14:31:45;;;;;;;22.52;7.75;;;;;;;;;;5039015;28;25062;-71
2023/12/25 14:34:11;;;;;;;31.73;9.60;;;;;;;;;;5026974;28;25150;-70
2023/12/25 14:36:37;;;;;;;25.13;9.80;;;;;;;;;;5025682;28;25055;-69